createdAt,value
2019-03-25T00:11:46.038Z,7.60
2019-03-25T00:14:15.529Z,8.30
2019-03-25T00:16:45.216Z,7.00
2019-03-25T00:19:14.805Z,8.63
2019-03-25T00:21:44.659Z,10.33
2019-03-25T00:24:14.388Z,8.80
2019-03-25T00:26:44.138Z,9.80
2019-03-25T00:29:13.516Z,6.80
2019-03-25T00:31:43.247Z,8.27
2019-03-25T00:34:12.722Z,10.57
2019-03-25T00:36:42.257Z,10.93
2019-03-25T00:39:11.836Z,7.07
2019-03-25T00:41:41.290Z,8.67
2019-03-25T00:45:05.907Z,6.80
2019-03-25T00:47:38.268Z,8.90
2019-03-25T00:50:07.902Z,9.50
2019-03-25T00:52:37.253Z,12.57
2019-03-25T00:55:07.022Z,12.83
2019-03-25T00:57:36.357Z,15.13
2019-03-25T01:00:06.197Z,12.00
2019-03-25T01:03:03.765Z,6.27
2019-03-25T01:05:33.270Z,13.10
2019-03-25T01:08:02.680Z,7.00
2019-03-25T01:10:32.052Z,10.60
2019-03-25T01:13:23.641Z,8.30
2019-03-25T01:15:54.585Z,12.83
2019-03-25T01:18:24.001Z,5.07
2019-03-25T01:20:53.346Z,9.90
2019-03-25T01:23:22.718Z,10.37
2019-03-25T01:25:58.198Z,11.17
2019-03-25T01:28:32.904Z,13.43
2019-03-25T01:31:03.324Z,7.13
2019-03-25T01:33:32.857Z,10.05
2019-03-25T01:36:02.210Z,8.83
2019-03-25T01:38:31.596Z,12.23
2019-03-25T01:41:01.065Z,8.43
2019-03-25T01:43:30.420Z,6.77
2019-03-25T01:45:59.868Z,5.93
2019-03-25T01:48:29.238Z,12.97
2019-03-25T01:50:58.600Z,6.93
2019-03-25T01:53:27.940Z,5.30
2019-03-25T01:56:05.874Z,8.50
2019-03-25T01:58:35.341Z,5.73
2019-03-25T02:01:04.868Z,6.60
2019-03-25T02:03:34.216Z,15.00
2019-03-25T02:06:03.570Z,6.20
2019-03-25T02:08:37.171Z,7.47
2019-03-25T02:11:06.802Z,10.63
2019-03-25T02:13:36.429Z,6.80
2019-03-25T02:16:15.034Z,10.87
2019-03-25T02:18:44.414Z,8.90
2019-03-25T02:21:14.326Z,7.87
2019-03-25T02:23:43.900Z,9.60
2019-03-25T02:26:13.396Z,9.07
2019-03-25T02:28:49.048Z,8.47
2019-03-25T02:31:18.752Z,11.70
2019-03-25T02:33:48.416Z,10.60
2019-03-25T02:36:53.109Z,6.60
2019-03-25T02:39:32.261Z,6.53
2019-03-25T02:42:02.724Z,6.77
2019-03-25T02:44:32.627Z,6.43
2019-03-25T02:47:02.530Z,7.00
2019-03-25T02:49:31.959Z,6.43
2019-03-25T02:52:01.729Z,10.57
2019-03-25T02:54:31.455Z,6.13
2019-03-25T02:57:01.182Z,12.20
2019-03-25T02:59:30.904Z,8.30
2019-03-25T03:02:00.636Z,9.97
2019-03-25T03:05:06.675Z,8.40
2019-03-25T03:07:36.321Z,8.53
2019-03-25T03:10:06.966Z,12.10
2019-03-25T03:12:36.478Z,10.00
2019-03-25T03:15:06.627Z,8.03
2019-03-25T03:17:36.384Z,9.23
2019-03-25T03:20:07.433Z,6.63
2019-03-25T03:22:37.705Z,8.20
2019-03-25T03:25:09.245Z,10.53
2019-03-25T03:27:38.824Z,7.33
2019-03-25T03:34:24.937Z,9.10
2019-03-25T03:36:54.424Z,6.90
2019-03-25T03:39:24.132Z,12.40
2019-03-25T03:41:54.421Z,10.63
2019-03-25T03:44:23.853Z,11.90
2019-03-25T03:46:53.335Z,8.87
2019-03-25T03:49:22.916Z,10.50
2019-03-25T03:51:53.328Z,8.27
2019-03-25T03:54:25.066Z,11.10
2019-03-25T03:56:55.046Z,11.47
2019-03-25T03:59:24.771Z,13.37
2019-03-25T04:01:54.156Z,17.80
2019-03-25T04:04:24.859Z,12.87
2019-03-25T04:06:54.311Z,13.37
2019-03-25T04:09:23.718Z,15.60
2019-03-25T04:11:53.297Z,15.53
2019-03-25T04:14:22.685Z,27.63
2019-03-25T04:16:52.056Z,19.13
2019-03-25T04:19:21.474Z,16.57
2019-03-25T04:21:50.852Z,24.63
2019-03-25T04:24:20.266Z,15.70
2019-03-25T04:26:49.651Z,17.10
2019-03-25T04:29:18.990Z,19.37
2019-03-25T04:31:48.369Z,22.73
2019-03-25T04:34:17.914Z,18.77
2019-03-25T04:36:47.277Z,23.20
2019-03-25T04:39:16.691Z,16.70
2019-03-25T04:41:46.130Z,24.93
2019-03-25T04:44:15.622Z,28.37
2019-03-25T04:46:45.207Z,17.43
2019-03-25T04:49:14.820Z,30.70
2019-03-25T04:51:45.006Z,19.67
2019-03-25T04:54:25.249Z,25.60
2019-03-25T04:56:54.677Z,22.83
2019-03-25T04:59:24.030Z,30.13
2019-03-25T05:01:53.391Z,26.70
2019-03-25T05:04:22.805Z,24.53
2019-03-25T05:06:52.274Z,24.87
2019-03-25T05:09:24.940Z,27.80
2019-03-25T05:12:10.645Z,24.03
2019-03-25T05:14:40.164Z,21.20
2019-03-25T05:17:11.035Z,26.40
2019-03-25T05:19:41.185Z,27.10
2019-03-25T05:22:11.177Z,21.30
2019-03-25T05:25:27.758Z,21.27
2019-03-25T05:27:57.110Z,22.20
2019-03-25T05:30:26.478Z,24.00
2019-03-25T05:32:55.842Z,24.13
2019-03-25T05:35:25.274Z,23.57
2019-03-25T05:38:00.675Z,25.20
2019-03-25T05:40:49.132Z,26.67
2019-03-25T05:43:20.938Z,23.93
2019-03-25T05:45:49.596Z,23.80
2019-03-25T05:48:19.064Z,23.20
2019-03-25T05:50:48.416Z,19.77
2019-03-25T05:53:17.865Z,18.40
2019-03-25T05:55:49.573Z,17.77
2019-03-25T05:58:18.990Z,15.13
2019-03-25T06:00:48.464Z,17.80
2019-03-25T06:03:17.856Z,17.07
2019-03-25T06:05:53.107Z,16.30
2019-03-25T06:08:22.465Z,14.53
2019-03-25T06:10:51.821Z,14.80
2019-03-25T06:13:21.197Z,11.97
2019-03-25T06:15:50.533Z,10.27
2019-03-25T06:18:20.519Z,10.40
2019-03-25T06:20:50.076Z,8.95
2019-03-25T06:23:19.525Z,10.97
2019-03-25T06:25:48.891Z,9.65
2019-03-25T06:28:18.328Z,8.23
2019-03-25T06:30:47.750Z,7.90
2019-03-25T06:33:17.110Z,8.05
2019-03-25T06:35:46.482Z,7.53
2019-03-25T06:38:15.917Z,7.13
2019-03-25T06:40:45.288Z,6.93
2019-03-25T06:43:14.629Z,6.93
2019-03-25T06:45:44.031Z,6.53
2019-03-25T06:48:13.398Z,7.33
2019-03-25T06:50:42.729Z,6.93
2019-03-25T06:53:12.068Z,7.03
2019-03-25T06:55:41.410Z,8.00
2019-03-25T06:58:10.749Z,7.40
2019-03-25T07:00:40.098Z,8.70
2019-03-25T07:03:09.444Z,5.70
2019-03-25T07:05:38.930Z,6.07
2019-03-25T07:08:08.274Z,7.97
2019-03-25T07:10:43.412Z,9.23
2019-03-25T07:13:12.765Z,6.07
2019-03-25T07:15:44.092Z,5.03
2019-03-25T07:18:13.189Z,5.27
2019-03-25T07:20:42.529Z,5.47
2019-03-25T07:23:11.878Z,7.93
2019-03-25T07:25:41.284Z,10.53
2019-03-25T07:28:10.660Z,6.43
2019-03-25T07:30:39.986Z,6.90
2019-03-25T07:33:09.332Z,7.30
2019-03-25T07:35:38.668Z,4.77
2019-03-25T07:38:08.016Z,5.63
2019-03-25T07:40:37.365Z,6.23
2019-03-25T07:43:06.718Z,6.93
2019-03-25T07:45:36.082Z,9.87
2019-03-25T07:48:05.524Z,6.10
2019-03-25T07:50:35.984Z,5.97
2019-03-25T07:53:05.562Z,5.50
2019-03-25T07:55:34.938Z,5.30
2019-03-25T07:58:04.444Z,9.13
2019-03-25T08:00:33.899Z,6.43
2019-03-25T08:03:03.338Z,8.67
2019-03-25T08:05:32.752Z,12.17
2019-03-25T08:08:02.233Z,10.03
2019-03-25T08:10:36.165Z,10.77
2019-03-25T08:13:05.859Z,7.33
2019-03-25T08:15:35.364Z,7.23
2019-03-25T08:18:05.462Z,6.83
2019-03-25T08:20:34.941Z,10.63
2019-03-25T08:23:04.357Z,13.27
2019-03-25T08:25:33.705Z,5.40
2019-03-25T08:28:03.130Z,9.23
2019-03-25T08:30:32.567Z,12.97
2019-03-25T08:33:01.941Z,4.70
2019-03-25T08:35:31.423Z,5.27
2019-03-25T08:38:00.785Z,4.90
2019-03-25T08:40:30.110Z,8.17
2019-03-25T08:42:59.522Z,9.20
2019-03-25T08:45:28.839Z,6.67
2019-03-25T08:47:58.256Z,7.27
2019-03-25T08:50:27.654Z,6.30
2019-03-25T08:52:58.406Z,9.90
2019-03-25T08:55:27.724Z,6.77
2019-03-25T08:57:57.073Z,9.67
2019-03-25T09:00:26.483Z,6.93
2019-03-25T09:02:55.889Z,6.00
2019-03-25T09:05:25.219Z,3.93
2019-03-25T09:07:54.631Z,11.60
2019-03-25T09:10:23.978Z,7.27
2019-03-25T09:12:53.309Z,6.30
2019-03-25T09:15:22.731Z,5.90
2019-03-25T09:17:52.134Z,5.70
2019-03-25T09:20:21.588Z,10.77
2019-03-25T09:22:52.245Z,6.17
2019-03-25T09:25:22.445Z,8.87
2019-03-25T09:27:51.861Z,7.83
2019-03-25T09:31:17.509Z,6.63
2019-03-25T09:33:47.993Z,12.43
2019-03-25T09:36:19.301Z,5.50
2019-03-25T09:38:48.994Z,8.70
2019-03-25T09:41:18.544Z,9.10
2019-03-25T09:43:47.982Z,10.90
2019-03-25T09:46:31.197Z,8.70
2019-03-25T09:49:00.601Z,11.00
2019-03-25T09:51:32.821Z,10.07
2019-03-25T09:54:02.202Z,6.93
2019-03-25T09:56:31.611Z,5.07
2019-03-25T09:59:00.977Z,7.60
2019-03-25T10:01:30.489Z,11.93
2019-03-25T10:03:59.904Z,7.80
2019-03-25T10:06:29.377Z,6.47
2019-03-25T10:08:58.798Z,8.17
2019-03-25T10:11:28.181Z,8.23
2019-03-25T10:13:57.564Z,3.17
2019-03-25T10:16:26.903Z,5.63
2019-03-25T10:18:56.285Z,6.03
2019-03-25T10:21:25.605Z,7.33
2019-03-25T10:23:55.214Z,6.20
2019-03-25T10:26:24.789Z,7.33
2019-03-25T10:28:54.145Z,5.97
2019-03-25T10:31:23.468Z,5.73
2019-03-25T10:33:52.821Z,2.57
2019-03-25T10:36:22.236Z,3.97
2019-03-25T10:38:51.567Z,2.93
2019-03-25T10:41:20.929Z,4.70
2019-03-25T10:43:50.272Z,3.83
2019-03-25T10:46:19.715Z,3.10
2019-03-25T10:48:49.216Z,3.30
2019-03-25T10:51:18.575Z,3.90
2019-03-25T10:53:47.896Z,4.43
2019-03-25T10:56:17.245Z,3.17
2019-03-25T10:58:46.685Z,5.60
2019-03-25T11:01:16.056Z,6.07
2019-03-25T11:03:45.444Z,2.93
2019-03-25T11:06:14.876Z,5.00
2019-03-25T11:08:44.310Z,3.00
2019-03-25T11:11:13.738Z,1.50
2019-03-25T11:13:43.160Z,2.80
2019-03-25T11:16:12.528Z,3.73
2019-03-25T11:18:41.877Z,1.97
2019-03-25T11:21:11.296Z,1.90
2019-03-25T11:23:40.621Z,2.50
2019-03-25T11:26:10.068Z,2.57
2019-03-25T11:28:39.473Z,2.53
2019-03-25T11:31:08.834Z,3.00
2019-03-25T11:33:38.167Z,2.53
2019-03-25T11:36:07.980Z,3.57
2019-03-25T11:38:37.475Z,1.93
2019-03-25T11:41:06.910Z,1.90
2019-03-25T11:43:36.249Z,2.77
2019-03-25T11:46:05.817Z,2.00
2019-03-25T11:48:35.166Z,2.93
2019-03-25T11:51:04.601Z,1.43
2019-03-25T11:53:33.923Z,0.67
2019-03-25T11:56:03.388Z,1.70
2019-03-25T11:58:32.770Z,0.90
2019-03-25T12:01:02.153Z,0.87
2019-03-25T12:03:33.715Z,1.27
2019-03-25T12:06:05.497Z,2.53
2019-03-25T12:08:37.958Z,1.80
2019-03-25T12:11:07.497Z,1.53
2019-03-25T12:13:46.543Z,2.30
2019-03-25T12:25:07.111Z,2.37
2019-03-25T12:27:36.447Z,2.07
2019-03-25T12:30:07.727Z,1.97
2019-03-25T12:32:37.142Z,1.87
2019-03-25T12:35:07.703Z,5.30
2019-03-25T12:37:37.181Z,2.47
2019-03-25T12:40:07.958Z,3.00
2019-03-25T12:42:37.783Z,2.87
2019-03-25T12:45:08.576Z,1.97
2019-03-25T12:47:37.926Z,2.97
2019-03-25T12:50:08.281Z,2.10
2019-03-25T12:52:37.689Z,2.37
2019-03-25T12:55:07.584Z,2.33
2019-03-25T12:57:37.013Z,2.83
2019-03-25T13:00:07.430Z,2.80
2019-03-25T13:02:36.765Z,2.90
2019-03-25T13:05:06.567Z,2.57
2019-03-25T13:07:35.969Z,3.57
2019-03-25T13:10:05.938Z,5.03
2019-03-25T13:12:35.381Z,7.03
2019-03-25T13:15:05.402Z,3.50
2019-03-25T13:17:35.989Z,2.63
2019-03-25T13:20:05.979Z,2.87
2019-03-25T13:22:37.469Z,2.57
2019-03-25T13:25:07.089Z,2.90
2019-03-25T13:27:36.448Z,2.77
2019-03-25T13:30:07.014Z,2.30
2019-03-25T13:32:36.479Z,2.70
2019-03-25T13:35:06.129Z,2.37
2019-03-25T13:37:35.572Z,2.47
2019-03-25T13:40:05.151Z,2.17
2019-03-25T13:42:34.521Z,2.20
2019-03-25T13:45:04.453Z,2.07
2019-03-25T13:47:33.885Z,2.33
2019-03-25T13:50:03.346Z,2.10
2019-03-25T13:52:32.837Z,1.80
2019-03-25T13:55:02.249Z,1.90
2019-03-25T13:57:31.770Z,2.03
2019-03-25T14:00:03.676Z,1.87
2019-03-25T14:02:32.349Z,3.30
2019-03-25T14:05:01.720Z,4.03
2019-03-25T14:07:31.200Z,2.50
2019-03-25T14:10:00.610Z,2.43
2019-03-25T14:12:30.160Z,3.60
2019-03-25T14:14:59.745Z,3.20
2019-03-25T14:17:29.186Z,2.20
2019-03-25T14:19:58.718Z,6.20
2019-03-25T14:22:28.419Z,5.90
2019-03-25T14:24:57.885Z,3.30
2019-03-25T14:27:27.563Z,2.83
2019-03-25T14:29:57.012Z,3.20
2019-03-25T14:32:26.434Z,3.93
2019-03-25T14:34:56.788Z,2.87
2019-03-25T14:37:26.226Z,4.90
2019-03-25T14:39:55.611Z,3.93
2019-03-25T14:42:25.073Z,3.43
2019-03-25T14:44:54.493Z,2.83
2019-03-25T14:47:26.478Z,4.33
2019-03-25T14:49:59.126Z,2.97
2019-03-25T14:52:28.593Z,6.60
2019-03-25T14:54:58.089Z,2.73
2019-03-25T14:57:27.558Z,3.77
2019-03-25T15:00:10.614Z,4.20
2019-03-25T15:02:41.143Z,2.70
2019-03-25T15:05:11.213Z,2.93
2019-03-25T15:07:41.209Z,1.80
2019-03-25T15:10:20.345Z,2.97
2019-03-25T15:12:57.849Z,2.97
2019-03-25T15:15:28.268Z,1.97
2019-03-25T15:17:57.874Z,3.00
2019-03-25T15:20:27.362Z,2.60
2019-03-25T15:22:57.225Z,2.00
2019-03-25T15:25:26.793Z,1.80
2019-03-25T15:27:56.473Z,2.23
2019-03-25T15:30:35.405Z,1.93
2019-03-25T15:32:57.626Z,7.33
2019-03-25T15:35:27.089Z,3.73
2019-03-25T15:37:56.660Z,2.80
2019-03-25T15:40:26.160Z,4.60
2019-03-25T15:42:55.673Z,4.20
2019-03-25T15:45:25.566Z,3.03
2019-03-25T15:47:57.491Z,3.93
2019-03-25T15:50:32.781Z,2.83
2019-03-25T15:53:02.483Z,4.30
2019-03-25T15:55:32.594Z,3.20
2019-03-25T15:58:02.134Z,2.77
2019-03-25T16:00:47.586Z,2.87
2019-03-25T16:03:11.377Z,3.30
2019-03-25T16:05:50.450Z,2.50
2019-03-25T16:08:20.065Z,3.90
2019-03-25T16:10:51.622Z,2.40
2019-03-25T16:13:20.579Z,3.53
2019-03-25T16:15:58.973Z,2.40
2019-03-25T16:18:36.548Z,4.63
2019-03-25T16:21:06.065Z,1.43
2019-03-25T16:23:35.547Z,2.30
2019-03-25T16:26:05.281Z,2.20
2019-03-25T16:28:34.647Z,1.40
2019-03-25T16:31:04.067Z,1.40
2019-03-25T16:33:33.442Z,1.13
2019-03-25T16:36:02.807Z,1.17
2019-03-25T16:38:32.408Z,1.37
2019-03-25T16:41:01.796Z,0.90
2019-03-25T16:43:31.620Z,1.20
2019-03-25T16:46:01.025Z,2.00
2019-03-25T16:48:30.501Z,1.40
2019-03-25T16:50:59.842Z,1.57
2019-03-25T16:53:29.338Z,1.20
2019-03-25T16:55:58.690Z,2.93
2019-03-25T16:58:38.271Z,2.03
2019-03-25T17:01:10.225Z,1.93
2019-03-25T17:03:39.777Z,2.33
2019-03-25T17:06:09.166Z,2.30
2019-03-25T17:08:41.185Z,2.93
2019-03-25T17:11:10.590Z,2.40
2019-03-25T17:13:39.999Z,10.00
2019-03-25T17:16:09.465Z,3.73
2019-03-25T17:18:38.873Z,3.97
2019-03-25T17:21:08.217Z,5.23
2019-03-25T17:23:37.588Z,4.17
2019-03-25T17:26:07.039Z,3.90
2019-03-25T17:28:36.385Z,3.53
2019-03-25T17:31:06.177Z,3.83
2019-03-25T17:33:35.736Z,5.23
2019-03-25T17:36:05.270Z,5.27
2019-03-25T17:38:34.722Z,6.00
2019-03-25T17:41:04.165Z,6.47
2019-03-25T17:43:33.538Z,3.47
2019-03-25T17:46:03.022Z,5.50
2019-03-25T17:48:32.459Z,4.23
2019-03-25T17:51:01.830Z,6.80
2019-03-25T17:53:31.267Z,4.90
2019-03-25T17:56:00.626Z,4.80
2019-03-25T17:58:29.977Z,4.60
2019-03-25T18:01:18.145Z,4.77
2019-03-25T18:03:47.492Z,4.17
2019-03-25T18:06:17.056Z,4.27
2019-03-25T18:08:46.468Z,3.73
2019-03-25T18:11:16.132Z,6.13
2019-03-25T18:13:49.585Z,4.83
2019-03-25T18:16:18.961Z,4.73
2019-03-25T18:18:48.353Z,3.67
2019-03-25T18:21:17.837Z,5.97
2019-03-25T18:23:47.202Z,6.20
2019-03-25T18:26:18.925Z,5.03
2019-03-25T18:28:48.253Z,8.00
2019-03-25T18:31:17.694Z,10.00
2019-03-25T18:33:47.102Z,5.00
2019-03-25T18:36:18.796Z,7.13
2019-03-25T18:38:48.149Z,9.17
2019-03-25T18:41:17.709Z,5.60
2019-03-25T18:43:48.317Z,5.97
2019-03-25T18:46:17.802Z,6.07
2019-03-25T18:48:49.457Z,8.30
2019-03-25T18:51:21.117Z,7.07
2019-03-25T18:53:50.745Z,8.40
2019-03-25T18:56:22.481Z,7.87
2019-03-25T18:58:52.085Z,8.73
2019-03-25T19:01:22.802Z,9.60
2019-03-25T19:03:52.388Z,7.20
2019-03-25T19:06:23.012Z,5.30
2019-03-25T19:08:52.816Z,9.43
2019-03-25T19:11:30.798Z,7.03
2019-03-25T19:13:53.409Z,7.33
2019-03-25T19:16:32.243Z,7.50
2019-03-25T19:19:01.650Z,5.63
2019-03-25T19:21:46.393Z,6.03
2019-03-25T19:24:15.762Z,6.23
2019-03-25T19:26:45.204Z,8.33
2019-03-25T19:29:14.705Z,10.10
2019-03-25T19:31:44.071Z,9.73
2019-03-25T19:34:13.408Z,9.67
2019-03-25T19:36:42.906Z,10.07
2019-03-25T19:39:12.254Z,11.43
2019-03-25T19:41:41.751Z,11.60
2019-03-25T19:44:11.203Z,12.57
2019-03-25T19:46:40.598Z,10.20
2019-03-25T19:49:10.056Z,11.97
2019-03-25T19:51:39.467Z,13.40
2019-03-25T19:54:08.939Z,14.10
2019-03-25T19:56:38.340Z,13.10
2019-03-25T19:59:07.786Z,14.93
2019-03-25T20:01:37.198Z,12.33
2019-03-25T20:04:06.666Z,11.47
2019-03-25T20:06:36.105Z,14.50
2019-03-25T20:09:07.286Z,13.73
2019-03-25T20:11:36.711Z,16.43
2019-03-25T20:14:06.124Z,15.93
2019-03-25T20:16:35.554Z,13.40
2019-03-25T20:19:05.015Z,15.23
2019-03-25T20:21:35.440Z,11.40
2019-03-25T20:24:04.926Z,11.83
2019-03-25T20:26:34.402Z,13.97
2019-03-25T20:29:06.390Z,15.50
2019-03-25T20:31:34.947Z,12.63
2019-03-25T20:34:11.033Z,16.63
2019-03-25T20:36:35.521Z,14.80
2019-03-25T20:39:08.081Z,7.47
2019-03-25T20:41:37.429Z,17.53
2019-03-25T20:44:06.988Z,15.80
2019-03-25T20:46:36.418Z,11.00
2019-03-25T20:49:05.774Z,11.70
2019-03-25T20:51:35.146Z,16.70
2019-03-25T20:54:04.700Z,11.07
2019-03-25T20:56:34.054Z,14.67
2019-03-25T20:59:03.528Z,12.80
2019-03-25T21:01:32.924Z,17.43
2019-03-25T21:04:02.407Z,18.40
2019-03-25T21:06:31.781Z,15.53
2019-03-25T21:09:01.228Z,13.20
2019-03-25T21:11:30.628Z,17.07
2019-03-25T21:14:00.050Z,15.93
2019-03-25T21:16:29.489Z,14.10
2019-03-25T21:18:58.990Z,11.43
2019-03-25T21:21:28.412Z,14.03
2019-03-25T21:23:57.864Z,13.07
2019-03-25T21:26:27.198Z,12.17
2019-03-25T21:28:56.641Z,12.67
2019-03-25T21:31:26.027Z,11.37
2019-03-25T21:33:55.394Z,12.43
2019-03-25T21:36:24.726Z,13.17
2019-03-25T21:38:54.179Z,9.73
2019-03-25T21:41:23.586Z,11.90
2019-03-25T21:43:53.006Z,13.23
2019-03-25T21:46:22.415Z,12.60
2019-03-25T21:48:51.935Z,13.47
2019-03-25T21:51:21.259Z,13.03
2019-03-25T21:53:53.059Z,12.17
2019-03-25T21:56:21.879Z,12.30
2019-03-25T21:58:51.387Z,14.07
2019-03-25T22:01:20.857Z,10.60
2019-03-25T22:03:50.297Z,10.50
2019-03-25T22:06:19.633Z,12.53
2019-03-25T22:08:49.067Z,12.93
2019-03-25T22:11:18.400Z,14.47
2019-03-25T22:13:47.916Z,19.80
2019-03-25T22:16:17.252Z,13.07
2019-03-25T22:18:46.609Z,14.37
2019-03-25T22:21:15.960Z,13.87
2019-03-25T22:23:45.334Z,14.53
2019-03-25T22:26:14.757Z,14.80
2019-03-25T22:28:44.134Z,17.23
2019-03-25T22:31:13.556Z,16.33
2019-03-25T22:33:42.912Z,13.53
2019-03-25T22:36:12.385Z,15.17
2019-03-25T22:38:41.757Z,14.93
2019-03-25T22:41:11.107Z,15.10
2019-03-25T22:43:40.459Z,15.03
2019-03-25T22:46:09.888Z,14.83
2019-03-25T22:48:39.244Z,16.33
2019-03-25T22:51:08.739Z,20.07
2019-03-25T22:53:38.181Z,13.83
2019-03-25T22:56:07.529Z,16.40
2019-03-25T22:58:36.978Z,15.90
2019-03-25T23:01:06.480Z,12.50
2019-03-25T23:03:39.329Z,14.13
2019-03-25T23:06:06.914Z,16.87
2019-03-25T23:08:36.269Z,13.33
2019-03-25T23:11:05.583Z,14.90
2019-03-25T23:13:34.925Z,14.77
2019-03-25T23:16:04.441Z,14.40
2019-03-25T23:18:33.965Z,16.00
2019-03-25T23:21:03.368Z,14.07
2019-03-25T23:23:32.737Z,15.40
2019-03-25T23:26:03.249Z,16.77
2019-03-25T23:28:32.684Z,16.00
2019-03-25T23:31:02.210Z,15.20
2019-03-25T23:33:31.619Z,13.97
2019-03-25T23:36:00.972Z,15.70
2019-03-25T23:38:30.332Z,19.37
2019-03-25T23:40:59.691Z,15.30
2019-03-25T23:43:29.040Z,15.60
2019-03-25T23:45:58.380Z,17.50
2019-03-25T23:48:27.733Z,21.60
2019-03-25T23:50:57.095Z,16.73
2019-03-25T23:53:26.529Z,18.07
2019-03-25T23:55:55.949Z,17.10
2019-03-25T23:58:25.296Z,16.40
